createdAt,value
2019-02-26T00:02:02.644Z,63.87
2019-02-26T00:04:49.343Z,66.73
2019-02-26T00:07:36.514Z,68.03
2019-02-26T00:10:24.762Z,68.58
2019-02-26T00:13:09.436Z,67.35
2019-02-26T00:15:55.047Z,67.46
2019-02-26T00:18:42.628Z,67.71
2019-02-26T00:21:29.295Z,67.84
2019-02-26T00:24:16.808Z,67.91
2019-02-26T00:27:03.795Z,68.31
2019-02-26T00:29:51.351Z,68.10
2019-02-26T00:32:38.368Z,69.07
2019-02-26T00:35:25.781Z,68.91
2019-02-26T00:38:15.362Z,69.00
2019-02-26T00:41:02.225Z,70.47
2019-02-26T00:43:51.234Z,70.08
2019-02-26T00:46:36.992Z,69.24
2019-02-26T00:49:25.815Z,70.00
2019-02-26T00:52:13.209Z,70.23
2019-02-26T00:55:00.019Z,70.23
2019-02-26T00:57:46.390Z,70.88
2019-02-26T01:00:33.184Z,71.56
2019-02-26T01:03:19.183Z,70.94
2019-02-26T01:06:05.935Z,69.31
2019-02-26T01:08:52.604Z,70.33
2019-02-26T01:11:38.324Z,70.51
2019-02-26T01:14:24.709Z,68.96
2019-02-26T01:17:12.613Z,68.96
2019-02-26T01:19:58.809Z,67.45
2019-02-26T01:22:45.689Z,69.03
2019-02-26T01:25:31.248Z,69.27
2019-02-26T01:28:18.545Z,69.27
2019-02-26T01:31:05.613Z,69.83
2019-02-26T01:33:52.978Z,70.95
2019-02-26T01:36:40.394Z,70.17
2019-02-26T01:39:27.362Z,69.19
2019-02-26T01:42:13.346Z,69.19
2019-02-26T01:45:00.428Z,67.94
2019-02-26T01:47:48.251Z,67.94
2019-02-26T01:50:35.550Z,68.68
2019-02-26T01:53:23.222Z,68.68
2019-02-26T01:56:08.764Z,69.20
2019-02-26T01:58:56.833Z,69.43
2019-02-26T02:01:44.226Z,69.67
2019-02-26T02:04:29.448Z,69.67
2019-02-26T02:07:14.849Z,69.56
2019-02-26T02:10:03.195Z,69.71
2019-02-26T02:12:48.837Z,69.59
2019-02-26T02:15:35.725Z,69.90
2019-02-26T02:18:23.059Z,71.24
2019-02-26T02:21:09.471Z,70.92
2019-02-26T02:23:54.869Z,71.00
2019-02-26T02:26:43.422Z,70.67
2019-02-26T02:29:28.654Z,70.67
2019-02-26T02:32:14.311Z,70.54
2019-02-26T02:35:03.441Z,72.75
2019-02-26T02:37:47.489Z,72.75
2019-02-26T02:40:32.908Z,72.29
2019-02-26T02:43:20.885Z,72.28
2019-02-26T02:46:05.832Z,71.72
2019-02-26T02:48:51.865Z,71.48
2019-02-26T02:51:39.539Z,71.48
2019-02-26T02:54:26.186Z,72.36
2019-02-26T02:57:11.637Z,73.40
2019-02-26T02:59:59.831Z,73.21
2019-02-26T03:02:46.654Z,73.21
2019-02-26T03:05:35.098Z,72.83
2019-02-26T03:08:22.364Z,70.99
2019-02-26T03:11:08.060Z,70.99
2019-02-26T03:13:53.976Z,69.77
2019-02-26T03:16:42.490Z,69.77
2019-02-26T03:19:27.009Z,69.75
2019-02-26T03:22:13.543Z,69.45
2019-02-26T03:25:02.267Z,69.74
2019-02-26T03:27:47.897Z,70.13
2019-02-26T03:30:38.793Z,69.96
2019-02-26T03:33:20.771Z,70.00
2019-02-26T03:36:08.570Z,69.82
2019-02-26T03:38:56.559Z,69.82
2019-02-26T03:41:43.177Z,70.37
2019-02-26T03:44:30.258Z,70.25
2019-02-26T03:47:18.858Z,70.89
2019-02-26T03:50:08.595Z,70.89
2019-02-26T03:52:51.946Z,71.14
2019-02-26T03:55:39.114Z,72.47
2019-02-26T03:58:25.237Z,73.23
2019-02-26T04:01:13.666Z,73.23
2019-02-26T04:03:59.741Z,73.51
2019-02-26T04:06:47.141Z,74.26
2019-02-26T04:09:32.806Z,75.43
2019-02-26T04:12:20.342Z,75.43
2019-02-26T04:15:07.427Z,74.67
2019-02-26T04:17:53.061Z,74.78
2019-02-26T04:20:43.382Z,74.82
2019-02-26T04:23:26.448Z,75.48
2019-02-26T04:26:52.713Z,75.48
2019-02-26T04:30:19.162Z,74.59
2019-02-26T04:33:45.513Z,74.59
2019-02-26T04:37:10.092Z,73.32
2019-02-26T04:40:48.594Z,74.24
2019-02-26T04:44:10.800Z,75.38
2019-02-26T04:47:00.368Z,74.86
2019-02-26T04:49:47.182Z,76.46
2019-02-26T04:52:35.094Z,76.91
2019-02-26T04:55:20.289Z,76.24
2019-02-26T04:58:05.973Z,76.22
2019-02-26T05:00:51.743Z,76.61
2019-02-26T05:03:37.630Z,76.17
2019-02-26T05:06:23.112Z,77.61
2019-02-26T05:09:10.612Z,78.19
2019-02-26T05:11:56.514Z,79.02
2019-02-26T05:14:42.361Z,78.82
2019-02-26T05:17:30.799Z,77.98
2019-02-26T05:20:16.762Z,78.00
2019-02-26T05:23:05.572Z,78.17
2019-02-26T05:25:50.666Z,77.54
2019-02-26T05:28:37.789Z,77.72
2019-02-26T05:31:23.593Z,78.38
2019-02-26T05:34:09.173Z,78.92
2019-02-26T05:36:54.565Z,79.10
2019-02-26T05:39:40.644Z,79.42
2019-02-26T05:42:27.685Z,78.83
2019-02-26T05:45:13.274Z,78.75
2019-02-26T05:47:59.064Z,78.89
2019-02-26T05:50:44.947Z,78.57
2019-02-26T05:53:30.522Z,78.53
2019-02-26T05:56:17.146Z,78.83
2019-02-26T05:59:06.781Z,79.01
2019-02-26T06:01:54.792Z,78.96
2019-02-26T06:04:41.026Z,78.68
2019-02-26T06:07:28.096Z,78.81
2019-02-26T06:10:13.729Z,78.77
2019-02-26T06:13:02.043Z,77.10
2019-02-26T06:15:48.024Z,77.92
2019-02-26T06:18:33.318Z,78.67
2019-02-26T06:21:26.079Z,78.81
2019-02-26T06:24:12.343Z,79.52
2019-02-26T06:26:58.245Z,77.95
2019-02-26T06:29:44.344Z,78.24
2019-02-26T06:32:32.358Z,78.68
2019-02-26T06:35:19.364Z,78.45
2019-02-26T06:38:09.038Z,79.18
2019-02-26T06:40:54.365Z,78.16
2019-02-26T06:43:42.766Z,79.70
2019-02-26T06:46:29.355Z,79.76
2019-02-26T06:49:17.793Z,79.01
2019-02-26T06:52:05.930Z,78.27
2019-02-26T06:54:57.218Z,76.48
2019-02-26T06:57:41.382Z,72.61
2019-02-26T07:00:29.349Z,67.31
2019-02-26T07:03:15.737Z,67.31
2019-02-26T07:06:04.622Z,64.97
2019-02-26T07:08:51.172Z,60.18
2019-02-26T07:11:37.865Z,58.56
2019-02-26T07:14:25.370Z,56.38
2019-02-26T07:17:13.417Z,55.70
2019-02-26T07:20:00.389Z,57.31
2019-02-26T07:22:49.242Z,54.09
2019-02-26T07:25:37.008Z,51.97
2019-02-26T07:28:24.642Z,51.65
2019-02-26T07:31:12.168Z,48.71
2019-02-26T07:34:00.605Z,50.19
2019-02-26T07:36:47.819Z,49.44
2019-02-26T07:39:33.947Z,49.35
2019-02-26T07:42:20.120Z,47.08
2019-02-26T07:45:14.666Z,46.23
2019-02-26T07:47:54.071Z,44.22
2019-02-26T07:50:43.588Z,43.88
2019-02-26T07:53:28.225Z,44.21
2019-02-26T07:56:13.535Z,45.98
2019-02-26T07:59:02.069Z,46.43
2019-02-26T08:01:49.632Z,46.24
2019-02-26T08:04:36.354Z,42.23
2019-02-26T08:07:23.902Z,42.81
2019-02-26T08:10:14.617Z,41.68
2019-02-26T08:13:01.556Z,40.54
2019-02-26T08:15:47.743Z,39.17
2019-02-26T08:18:33.623Z,38.54
2019-02-26T08:21:22.219Z,38.79
2019-02-26T08:24:07.294Z,40.31
2019-02-26T08:26:53.008Z,38.84
2019-02-26T08:29:38.695Z,38.64
2019-02-26T08:32:25.816Z,38.92
2019-02-26T08:35:12.175Z,39.31
2019-02-26T08:37:57.504Z,38.32
2019-02-26T08:40:42.825Z,37.05
2019-02-26T08:43:28.423Z,37.54
2019-02-26T08:46:16.438Z,36.48
2019-02-26T08:49:08.144Z,37.93
2019-02-26T08:51:48.995Z,42.10
2019-02-26T08:54:35.846Z,39.02
2019-02-26T08:57:21.527Z,37.42
2019-02-26T09:00:10.406Z,37.31
2019-02-26T09:02:56.734Z,36.00
2019-02-26T09:05:42.847Z,35.91
2019-02-26T09:08:30.171Z,37.02
2019-02-26T09:11:15.494Z,36.06
2019-02-26T09:14:03.884Z,37.10
2019-02-26T09:16:51.946Z,36.80
2019-02-26T09:19:38.046Z,36.63
2019-02-26T09:22:26.058Z,38.83
2019-02-26T09:25:12.033Z,40.70
2019-02-26T09:27:57.319Z,41.09
2019-02-26T09:30:43.017Z,43.14
2019-02-26T09:33:32.703Z,42.86
2019-02-26T09:36:20.499Z,45.21
2019-02-26T09:39:05.922Z,45.86
2019-02-26T09:41:52.243Z,43.06
2019-02-26T09:44:38.692Z,42.26
2019-02-26T09:47:33.041Z,40.16
2019-02-26T09:50:19.910Z,42.67
2019-02-26T09:53:05.483Z,39.43
2019-02-26T09:55:51.615Z,39.72
2019-02-26T09:58:40.254Z,38.09
2019-02-26T10:01:24.977Z,39.43
2019-02-26T10:04:10.593Z,41.34
2019-02-26T10:06:56.203Z,48.66
2019-02-26T10:09:45.945Z,48.26
2019-02-26T10:12:29.867Z,43.95
2019-02-26T10:15:16.640Z,40.39
2019-02-26T10:18:04.843Z,42.81
2019-02-26T10:20:52.253Z,42.96
2019-02-26T10:23:38.518Z,41.99
2019-02-26T10:26:26.405Z,43.36
2019-02-26T10:29:11.770Z,42.24
2019-02-26T10:31:57.094Z,41.54
2019-02-26T10:34:42.764Z,41.97
2019-02-26T10:37:31.360Z,38.37
2019-02-26T10:40:17.113Z,39.95
2019-02-26T10:43:04.371Z,41.17
2019-02-26T10:45:50.663Z,40.51
2019-02-26T10:48:37.107Z,38.60
2019-02-26T10:51:26.154Z,36.65
2019-02-26T10:54:13.719Z,36.18
2019-02-26T10:57:00.185Z,39.19
2019-02-26T10:59:45.919Z,36.98
2019-02-26T11:02:31.218Z,37.75
2019-02-26T11:05:21.514Z,40.27
2019-02-26T11:08:08.857Z,38.56
2019-02-26T11:10:52.370Z,40.19
2019-02-26T11:13:42.795Z,39.26
2019-02-26T11:16:30.466Z,41.45
2019-02-26T11:19:16.011Z,39.60
2019-02-26T11:22:04.150Z,40.35
2019-02-26T11:24:50.788Z,37.66
2019-02-26T11:27:38.022Z,35.96
2019-02-26T11:30:27.232Z,37.48
2019-02-26T11:33:13.701Z,35.35
2019-02-26T11:36:00.155Z,36.22
2019-02-26T11:38:47.092Z,38.43
2019-02-26T11:41:35.403Z,36.02
2019-02-26T11:44:22.571Z,36.31
2019-02-26T11:47:08.528Z,34.17
2019-02-26T11:49:55.748Z,32.40
2019-02-26T11:52:41.727Z,32.54
2019-02-26T11:55:30.054Z,32.34
2019-02-26T11:58:18.646Z,32.72
2019-02-26T12:01:08.568Z,29.75
2019-02-26T12:03:56.071Z,31.51
2019-02-26T12:06:42.241Z,29.86
2019-02-26T12:09:29.994Z,30.47
2019-02-26T12:12:15.303Z,28.63
2019-02-26T12:15:02.070Z,29.08
2019-02-26T12:17:49.324Z,28.85
2019-02-26T12:20:38.504Z,27.84
2019-02-26T12:23:23.891Z,26.62
2019-02-26T12:26:09.458Z,27.86
2019-02-26T12:28:57.264Z,30.49
2019-02-26T12:31:42.680Z,27.61
2019-02-26T12:34:28.126Z,29.41
2019-02-26T12:37:13.660Z,28.39
2019-02-26T12:39:59.596Z,26.66
2019-02-26T12:42:45.040Z,25.99
2019-02-26T12:45:31.773Z,24.77
2019-02-26T12:48:22.099Z,25.65
2019-02-26T12:51:07.682Z,25.09
2019-02-26T12:53:53.095Z,25.15
2019-02-26T12:56:38.659Z,24.88
2019-02-26T12:59:24.228Z,24.67
2019-02-26T13:02:12.869Z,25.17
2019-02-26T13:04:57.714Z,23.97
2019-02-26T13:07:46.222Z,23.05
2019-02-26T13:10:34.870Z,22.04
2019-02-26T13:13:20.823Z,21.89
2019-02-26T13:16:06.868Z,21.69
2019-02-26T13:18:56.677Z,21.86
2019-02-26T13:21:42.935Z,25.32
2019-02-26T13:24:29.264Z,22.18
2019-02-26T13:27:14.657Z,24.61
2019-02-26T13:30:00.094Z,23.65
2019-02-26T13:33:05.179Z,23.69
2019-02-26T13:35:34.039Z,24.53
2019-02-26T13:38:24.246Z,25.05
2019-02-26T13:41:28.279Z,24.20
2019-02-26T13:43:58.692Z,26.24
2019-02-26T13:46:46.158Z,26.23
2019-02-26T13:49:32.168Z,24.86
2019-02-26T13:52:17.815Z,24.85
2019-02-26T13:55:04.766Z,26.07
2019-02-26T13:57:50.904Z,28.16
2019-02-26T14:00:36.715Z,26.40
2019-02-26T14:03:22.123Z,25.80
2019-02-26T14:06:07.548Z,28.91
2019-02-26T14:08:52.880Z,30.29
2019-02-26T14:11:38.352Z,29.75
2019-02-26T14:14:23.664Z,26.86
2019-02-26T14:17:08.995Z,26.81
2019-02-26T14:19:54.928Z,25.68
2019-02-26T14:22:40.938Z,28.96
2019-02-26T14:25:27.403Z,27.52
2019-02-26T14:28:13.503Z,25.95
2019-02-26T14:30:59.106Z,24.90
2019-02-26T14:33:47.025Z,24.50
2019-02-26T14:36:33.225Z,22.60
2019-02-26T14:39:18.599Z,22.91
2019-02-26T14:42:04.090Z,24.42
2019-02-26T14:44:49.682Z,24.37
2019-02-26T14:47:35.417Z,23.74
2019-02-26T14:50:20.890Z,23.79
2019-02-26T14:53:06.978Z,24.67
2019-02-26T14:55:53.140Z,25.88
2019-02-26T14:58:39.334Z,26.47
2019-02-26T15:01:25.585Z,24.73
2019-02-26T15:04:12.473Z,25.96
2019-02-26T15:06:58.152Z,26.89
2019-02-26T15:09:46.931Z,27.56
2019-02-26T15:12:33.258Z,28.70
2019-02-26T15:15:19.147Z,27.86
2019-02-26T15:18:05.118Z,28.13
2019-02-26T15:20:51.070Z,29.36
2019-02-26T15:23:37.127Z,30.91
2019-02-26T15:26:23.508Z,28.83
2019-02-26T15:29:09.120Z,28.79
2019-02-26T15:31:54.546Z,29.95
2019-02-26T15:34:40.827Z,29.07
2019-02-26T15:37:26.726Z,30.99
2019-02-26T15:40:12.729Z,29.98
2019-02-26T15:42:59.241Z,30.19
2019-02-26T15:45:51.811Z,31.59
2019-02-26T15:48:36.333Z,31.69
2019-02-26T15:51:22.272Z,30.60
2019-02-26T15:54:08.390Z,31.11
2019-02-26T15:56:54.115Z,29.99
2019-02-26T15:59:41.286Z,30.80
2019-02-26T16:02:28.519Z,31.03
2019-02-26T16:05:18.159Z,30.36
2019-02-26T16:08:04.180Z,30.82
2019-02-26T16:10:49.883Z,29.96
2019-02-26T16:13:35.931Z,30.34
2019-02-26T16:16:22.307Z,31.54
2019-02-26T16:19:07.698Z,31.26
2019-02-26T16:21:53.524Z,31.31
2019-02-26T16:24:41.762Z,30.52
2019-02-26T16:27:28.455Z,31.48
2019-02-26T16:30:16.187Z,30.80
2019-02-26T16:33:02.437Z,30.73
2019-02-26T16:35:48.027Z,30.28
2019-02-26T16:38:33.619Z,30.61
2019-02-26T16:41:20.191Z,30.59
2019-02-26T16:44:06.113Z,30.95
2019-02-26T16:46:52.096Z,31.35
2019-02-26T16:49:38.199Z,30.74
2019-02-26T16:52:27.395Z,36.33
2019-02-26T16:55:14.128Z,32.65
2019-02-26T16:58:02.310Z,34.25
2019-02-26T17:00:49.465Z,32.33
2019-02-26T17:03:35.568Z,39.30
2019-02-26T17:06:21.716Z,39.52
2019-02-26T17:09:07.271Z,40.40
2019-02-26T17:11:53.250Z,40.14
2019-02-26T17:14:40.914Z,39.43
2019-02-26T17:17:26.644Z,37.63
2019-02-26T17:20:12.489Z,41.54
2019-02-26T17:22:58.359Z,43.67
2019-02-26T17:25:43.576Z,43.16
2019-02-26T17:28:31.174Z,43.35
2019-02-26T17:31:16.489Z,43.83
2019-02-26T17:34:01.940Z,42.60
2019-02-26T17:36:47.604Z,45.07
2019-02-26T17:39:33.012Z,47.04
2019-02-26T17:42:18.537Z,46.75
2019-02-26T17:45:05.912Z,47.11
2019-02-26T17:47:51.631Z,48.32
2019-02-26T17:50:37.143Z,48.13
2019-02-26T17:53:23.096Z,48.57
2019-02-26T17:56:08.407Z,49.30
2019-02-26T17:58:53.938Z,50.40
2019-02-26T18:01:39.778Z,49.58
2019-02-26T18:04:25.263Z,49.66
2019-02-26T18:07:10.644Z,49.78
2019-02-26T18:09:56.201Z,51.07
2019-02-26T18:12:42.758Z,48.83
2019-02-26T18:15:29.127Z,50.75
2019-02-26T18:18:14.542Z,50.83
2019-02-26T18:20:59.816Z,50.49
2019-02-26T18:23:45.527Z,50.51
2019-02-26T18:26:31.082Z,50.65
2019-02-26T18:29:17.120Z,51.10
2019-02-26T18:32:03.224Z,52.85
2019-02-26T18:34:48.589Z,52.25
2019-02-26T18:37:33.939Z,52.85
2019-02-26T18:40:19.781Z,52.71
2019-02-26T18:43:05.300Z,52.98
2019-02-26T18:45:50.818Z,52.94
2019-02-26T18:48:36.792Z,53.68
2019-02-26T18:51:22.272Z,54.38
2019-02-26T18:54:07.645Z,53.47
2019-02-26T18:56:53.922Z,52.98
2019-02-26T18:59:39.455Z,53.82
2019-02-26T19:02:25.967Z,52.60
2019-02-26T19:05:11.943Z,53.55
2019-02-26T19:07:58.348Z,53.30
2019-02-26T19:10:43.950Z,54.09
2019-02-26T19:13:33.219Z,54.23
2019-02-26T19:16:20.437Z,53.42
2019-02-26T19:19:06.718Z,53.99
2019-02-26T19:21:54.107Z,54.12
2019-02-26T19:24:40.600Z,54.34
2019-02-26T19:27:28.760Z,55.31
2019-02-26T19:30:16.067Z,54.47
2019-02-26T19:33:03.491Z,54.79
2019-02-26T19:35:49.528Z,55.37
2019-02-26T19:38:35.084Z,55.87
2019-02-26T19:41:20.529Z,55.31
2019-02-26T19:44:06.061Z,56.22
2019-02-26T19:46:51.441Z,56.67
2019-02-26T19:49:39.668Z,56.36
2019-02-26T19:52:24.812Z,56.42
2019-02-26T19:55:15.649Z,55.72
2019-02-26T19:58:04.079Z,56.61
2019-02-26T20:00:52.675Z,56.96
2019-02-26T20:03:39.943Z,56.92
2019-02-26T20:06:26.163Z,56.60
2019-02-26T20:09:10.925Z,56.45
2019-02-26T20:11:58.501Z,57.50
2019-02-26T20:14:44.168Z,55.83
2019-02-26T20:17:29.813Z,56.68
2019-02-26T20:20:16.739Z,56.74
2019-02-26T20:23:05.127Z,57.11
2019-02-26T20:25:50.718Z,56.31
2019-02-26T20:28:36.435Z,56.98
2019-02-26T20:31:22.857Z,56.74
2019-02-26T20:34:08.664Z,57.28
2019-02-26T20:36:53.995Z,57.38
2019-02-26T20:39:40.899Z,57.79
2019-02-26T20:42:29.016Z,57.81
2019-02-26T20:45:18.084Z,57.15
2019-02-26T20:48:04.823Z,56.85
2019-02-26T20:50:53.479Z,56.35
2019-02-26T20:53:39.030Z,56.97
2019-02-26T20:56:28.586Z,56.85
2019-02-26T20:59:17.541Z,56.37
2019-02-26T21:02:02.353Z,56.35
2019-02-26T21:04:47.735Z,53.76
2019-02-26T21:07:38.125Z,53.09
2019-02-26T21:10:23.804Z,52.47
2019-02-26T21:13:09.109Z,53.09
2019-02-26T21:15:54.853Z,53.07
2019-02-26T21:18:40.541Z,55.49
2019-02-26T21:21:25.884Z,57.16
2019-02-26T21:24:11.517Z,56.48
2019-02-26T21:26:56.866Z,57.39
2019-02-26T21:29:42.188Z,55.70
2019-02-26T21:32:28.173Z,58.17
2019-02-26T21:35:14.225Z,58.16
2019-02-26T21:37:59.571Z,58.04
2019-02-26T21:40:48.727Z,56.51
2019-02-26T21:43:35.472Z,55.61
2019-02-26T21:46:22.804Z,57.69
2019-02-26T21:49:09.934Z,57.69
2019-02-26T21:51:55.860Z,58.14
2019-02-26T21:54:42.827Z,57.15
2019-02-26T21:57:28.970Z,58.00
2019-02-26T22:00:15.044Z,59.41
2019-02-26T22:03:00.305Z,59.03
2019-02-26T22:05:45.842Z,59.85
2019-02-26T22:08:31.394Z,59.82
2019-02-26T22:11:18.617Z,59.82
2019-02-26T22:14:04.682Z,58.88
2019-02-26T22:16:51.539Z,59.38
2019-02-26T22:19:40.179Z,60.68
2019-02-26T22:22:26.236Z,58.90
2019-02-26T22:25:17.137Z,58.62
2019-02-26T22:28:00.924Z,60.42
2019-02-26T22:30:46.509Z,60.26
2019-02-26T22:33:32.204Z,58.64
2019-02-26T22:36:18.709Z,56.74
2019-02-26T22:39:05.028Z,54.95
2019-02-26T22:41:50.710Z,55.92
2019-02-26T22:44:36.209Z,55.92
2019-02-26T22:47:21.793Z,54.47
2019-02-26T22:50:08.786Z,56.37
2019-02-26T22:52:54.457Z,58.54
2019-02-26T22:55:40.117Z,58.23
2019-02-26T22:58:25.516Z,58.25
2019-02-26T23:01:18.070Z,57.76
2019-02-26T23:04:04.125Z,58.04
2019-02-26T23:06:49.951Z,58.04
2019-02-26T23:09:36.920Z,58.39
2019-02-26T23:12:22.665Z,59.46
2019-02-26T23:15:09.692Z,58.29
2019-02-26T23:17:58.107Z,58.01
2019-02-26T23:20:43.397Z,58.11
2019-02-26T23:23:29.173Z,58.87
2019-02-26T23:26:14.936Z,59.07
2019-02-26T23:29:00.645Z,60.12
2019-02-26T23:31:46.812Z,60.45
2019-02-26T23:34:33.145Z,60.01
2019-02-26T23:37:18.510Z,60.23
2019-02-26T23:40:04.994Z,60.24
2019-02-26T23:42:51.365Z,60.64
2019-02-26T23:45:37.098Z,60.69
2019-02-26T23:48:22.994Z,60.69
2019-02-26T23:51:08.623Z,60.91
2019-02-26T23:53:54.093Z,60.96
2019-02-26T23:56:39.453Z,60.66
2019-02-26T23:59:25.040Z,61.15
